Time;durP1;ratioP1;P1;durP2;ratioP2;P2;SDS_P1;SDS_P2;PMS_P1;PMS_P2;Temp;Humidity;BMP_temperature;BMP_pressure;BME280_temperature;BME280_humidity;BME280_pressure;Samples;Min_cycle;Max_cycle;Signal;HPM_P1;HPM_P2
2021/04/28 00:03:04;;;;;;;6.93;3.35;;;20.10;50.10;;;;;;6132110;29;20098;-78
2021/04/28 00:06:05;;;;;;;6.33;3.23;;;20.10;50.20;;;;;;6148527;29;20470;-79
2021/04/28 00:09:07;;;;;;;4.28;2.90;;;20.00;50.20;;;;;;6150458;29;20035;-79
2021/04/28 00:12:10;;;;;;;9.00;3.50;;;20.00;50.50;;;;;;6148107;29;20047;-78
2021/04/28 00:15:15;;;;;;;7.20;3.22;;;19.90;51.00;;;;;;6137627;29;20082;-78
2021/04/28 00:18:17;;;;;;;5.82;3.28;;;19.80;51.40;;;;;;6118910;29;20456;-78
2021/04/28 00:21:19;;;;;;;10.32;3.95;;;19.70;52.10;;;;;;6129718;29;20059;-78
2021/04/28 00:24:20;;;;;;;8.18;3.60;;;19.50;53.20;;;;;;6114596;29;20038;-78
2021/04/28 00:27:21;;;;;;;12.77;3.70;;;19.30;54.20;;;;;;6130805;29;20031;-77
2021/04/28 00:30:23;;;;;;;10.05;4.10;;;19.10;55.00;;;;;;6132117;29;20121;-80
2021/04/28 00:33:24;;;;;;;6.63;3.83;;;18.90;55.50;;;;;;6130759;29;20023;-77
2021/04/28 00:36:25;;;;;;;10.43;3.45;;;18.80;56.00;;;;;;6150279;29;20015;-77
2021/04/28 00:39:26;;;;;;;8.88;3.65;;;18.70;56.50;;;;;;6125234;29;20031;-77
2021/04/28 00:42:27;;;;;;;5.82;3.42;;;18.60;57.50;;;;;;6096330;29;20062;-77
2021/04/28 00:45:29;;;;;;;9.40;3.70;;;18.50;57.70;;;;;;6127913;29;20027;-77
2021/04/28 00:48:30;;;;;;;7.30;3.45;;;18.40;57.70;;;;;;6128822;29;20045;-77
2021/04/28 00:51:31;;;;;;;8.88;3.60;;;18.40;58.00;;;;;;6129049;29;20063;-78
2021/04/28 00:54:33;;;;;;;8.93;4.22;;;18.40;58.40;;;;;;6129999;29;20039;-78
2021/04/28 00:57:34;;;;;;;7.75;4.00;;;18.30;58.60;;;;;;6128527;29;20079;-76
2021/04/28 01:00:38;;;;;;;7.90;3.58;;;18.30;58.90;;;;;;6128806;29;20547;-77
2021/04/28 01:03:40;;;;;;;8.00;3.72;;;18.30;59.00;;;;;;6113483;29;20036;-77
2021/04/28 01:06:44;;;;;;;10.93;4.20;;;18.20;59.30;;;;;;6113209;29;20439;-77
2021/04/28 01:09:46;;;;;;;7.05;4.03;;;18.20;59.90;;;;;;6129980;29;20036;-77
2021/04/28 01:12:47;;;;;;;7.03;3.78;;;18.20;60.10;;;;;;6129741;29;20046;-77
2021/04/28 01:15:50;;;;;;;10.82;3.92;;;18.20;60.10;;;;;;6129490;29;20023;-77
2021/04/28 01:18:54;;;;;;;8.73;4.72;;;18.20;60.10;;;;;;6112701;29;20046;-77
2021/04/28 01:21:56;;;;;;;6.72;4.38;;;18.20;60.10;;;;;;6112587;29;20383;-77
2021/04/28 01:24:57;;;;;;;11.00;5.00;;;18.20;60.10;;;;;;6112844;29;20459;-77
2021/04/28 01:28:03;;;;;;;7.60;4.32;;;18.30;60.20;;;;;;6112653;29;20114;-77
2021/04/28 01:31:10;;;;;;;7.38;4.32;;;18.30;60.40;;;;;;6128482;29;20079;-77
2021/04/28 01:34:12;;;;;;;13.43;4.70;;;18.40;60.50;;;;;;6112256;29;20102;-77
2021/04/28 01:37:14;;;;;;;10.18;4.20;;;18.40;60.10;;;;;;6128532;29;20252;-78
2021/04/28 01:40:20;;;;;;;6.13;3.90;;;18.40;59.90;;;;;;6113271;29;20114;-78
2021/04/28 01:43:24;;;;;;;6.20;4.32;;;18.40;59.90;;;;;;6112923;29;20173;-77
2021/04/28 01:46:28;;;;;;;9.48;4.30;;;18.40;59.60;;;;;;6112553;29;20055;-77
2021/04/28 01:49:31;;;;;;;9.38;4.07;;;18.40;59.40;;;;;;6112042;29;20474;-77
2021/04/28 01:52:34;;;;;;;6.95;3.70;;;18.40;59.30;;;;;;6128309;29;20121;-77
2021/04/28 01:55:36;;;;;;;9.23;4.53;;;18.40;59.30;;;;;;6112224;29;20119;-76
2021/04/28 01:58:57;;;;;;;6.93;4.50;;;18.40;59.40;;;;;;6079988;29;20135;-77
2021/04/28 02:02:18;;;;;;;8.55;3.88;;;18.40;59.60;;;;;;6095473;29;20456;-76
2021/04/28 02:05:23;;;;;;;9.98;3.78;;;18.40;59.80;;;;;;6095230;29;20076;-78
2021/04/28 02:08:25;;;;;;;10.40;4.20;;;18.50;60.00;;;;;;6080496;29;20076;-78
2021/04/28 02:11:26;;;;;;;8.63;4.28;;;18.50;60.30;;;;;;6095926;29;20025;-78
2021/04/28 02:14:30;;;;;;;8.85;4.30;;;18.50;60.30;;;;;;6079880;29;20032;-77
2021/04/28 02:17:38;;;;;;;12.45;4.70;;;18.50;60.60;;;;;;6097531;29;20064;-77
2021/04/28 02:20:40;;;;;;;11.75;4.30;;;18.50;60.70;;;;;;6088564;29;20400;-77
2021/04/28 02:24:06;;;;;;;5.97;3.90;;;18.50;60.80;;;;;;6099209;29;20036;-78
2021/04/28 02:27:08;;;;;;;11.38;3.75;;;18.50;60.80;;;;;;6091794;29;20032;-76
2021/04/28 02:30:13;;;;;;;7.50;4.03;;;18.50;60.70;;;;;;6069830;29;20104;-77
2021/04/28 02:33:16;;;;;;;7.50;3.65;;;18.50;60.70;;;;;;6067666;29;20459;-77
2021/04/28 02:36:40;;;;;;;8.50;3.60;;;18.50;60.80;;;;;;6108847;29;20543;-77
2021/04/28 02:40:08;;;;;;;9.23;4.38;;;18.50;60.60;;;;;;6132647;29;20483;-76
2021/04/28 02:43:14;;;;;;;6.18;3.72;;;18.60;60.60;;;;;;6115982;29;20062;-77
2021/04/28 02:46:20;;;;;;;8.10;4.13;;;18.60;60.60;;;;;;6131850;29;20040;-82
2021/04/28 02:49:27;;;;;;;7.28;4.28;;;18.60;60.70;;;;;;6116148;29;20035;-78
2021/04/28 02:52:38;;;;;;;6.97;4.28;;;18.60;60.80;;;;;;6131682;29;20484;-78
2021/04/28 02:55:41;;;;;;;5.70;4.10;;;18.50;60.80;;;;;;6115729;29;20034;-77
2021/04/28 02:58:44;;;;;;;5.50;3.67;;;18.40;61.00;;;;;;6115241;29;20158;-77
2021/04/28 03:01:46;;;;;;;8.77;4.03;;;18.30;61.20;;;;;;6132127;29;20401;-77
2021/04/28 03:04:51;;;;;;;11.90;4.30;;;18.30;62.40;;;;;;6117253;29;20087;-77
2021/04/28 03:08:12;;;;;;;6.40;3.88;;;18.20;61.70;;;;;;6115806;29;20047;-78
2021/04/28 03:11:14;;;;;;;8.23;4.15;;;18.20;62.00;;;;;;6126782;29;20028;-77
2021/04/28 03:14:16;;;;;;;9.65;3.78;;;18.10;62.10;;;;;;6116060;29;20060;-77
2021/04/28 03:17:20;;;;;;;5.40;3.55;;;18.10;62.30;;;;;;6114826;29;20024;-77
2021/04/28 03:20:24;;;;;;;5.10;3.72;;;18.10;62.50;;;;;;6115907;29;20031;-78
2021/04/28 03:23:25;;;;;;;6.80;3.97;;;18.00;62.60;;;;;;6099516;29;20463;-78
2021/04/28 03:26:28;;;;;;;7.10;3.80;;;18.00;63.00;;;;;;6131497;29;20091;-77
2021/04/28 03:29:30;;;;;;;7.90;3.70;;;18.00;63.30;;;;;;6130917;29;20118;-78
2021/04/28 03:32:32;;;;;;;10.43;4.20;;;17.90;63.40;;;;;;6107805;29;20067;-77
2021/04/28 03:35:54;;;;;;;5.85;3.80;;;17.90;63.60;;;;;;6124969;29;20023;-77
2021/04/28 03:39:22;;;;;;;11.38;5.15;;;18.00;63.80;;;;;;6107678;29;20367;-77
2021/04/28 03:42:23;;;;;;;4.93;3.33;;;17.90;63.80;;;;;;6114909;29;20050;-77
2021/04/28 03:45:28;;;;;;;7.32;4.25;;;17.90;64.10;;;;;;6114343;29;20039;-77
2021/04/28 03:52:52;;;;;;;7.07;4.25;;;17.80;64.60;;;;;;6127097;29;20035;-77
2021/04/28 03:56:09;;;;;;;11.45;5.45;;;17.80;64.90;;;;;;6129954;29;20039;-76
2021/04/28 03:59:12;;;;;;;10.88;4.55;;;17.80;65.20;;;;;;6114464;29;20028;-77
2021/04/28 04:02:13;;;;;;;10.15;4.70;;;17.80;65.30;;;;;;6130077;29;20039;-76
2021/04/28 04:05:33;;;;;;;12.02;4.35;;;17.80;65.30;;;;;;6130916;29;20047;-78
2021/04/28 04:09:00;;;;;;;11.90;5.28;;;17.80;65.40;;;;;;6129123;29;20089;-77
2021/04/28 04:12:02;;;;;;;8.55;4.80;;;17.80;65.20;;;;;;6130394;29;20411;-77
2021/04/28 04:15:13;;;;;;;9.35;4.65;;;17.80;65.30;;;;;;6130109;29;20028;-77
2021/04/28 04:18:14;;;;;;;7.50;3.97;;;17.80;65.40;;;;;;6130495;29;20028;-78
2021/04/28 04:21:28;;;;;;;7.75;4.40;;;17.70;65.30;;;;;;6099794;29;20055;-78
2021/04/28 04:24:49;;;;;;;6.97;4.28;;;17.70;65.70;;;;;;6112177;29;20036;-78
2021/04/28 04:27:51;;;;;;;8.57;5.00;;;17.60;65.80;;;;;;6125272;29;20028;-77
2021/04/28 04:31:03;;;;;;;7.50;4.53;;;17.70;66.20;;;;;;6133917;29;20466;-78
2021/04/28 04:34:23;;;;;;;9.98;4.78;;;17.60;66.30;;;;;;6130480;29;20371;-78
2021/04/28 04:37:42;;;;;;;7.78;4.40;;;17.60;66.70;;;;;;6116558;29;20122;-77
2021/04/28 04:40:52;;;;;;;12.07;4.82;;;17.50;66.80;;;;;;6113320;29;20091;-77
2021/04/28 04:44:11;;;;;;;12.48;5.30;;;17.50;67.00;;;;;;6128775;29;20031;-77
2021/04/28 04:47:19;;;;;;;9.13;4.85;;;17.50;67.30;;;;;;6112917;29;20459;-77
2021/04/28 04:50:20;;;;;;;9.15;4.95;;;17.50;67.50;;;;;;6128809;29;20371;-77
2021/04/28 04:53:21;;;;;;;7.65;4.43;;;17.50;67.50;;;;;;6130505;29;20090;-77
2021/04/28 04:56:22;;;;;;;10.00;5.10;;;17.50;67.60;;;;;;6123243;29;20495;-77
2021/04/28 04:59:23;;;;;;;8.52;5.05;;;17.50;67.70;;;;;;6109587;29;20043;-77
2021/04/28 05:02:24;;;;;;;11.77;5.43;;;17.50;67.90;;;;;;6123142;29;20470;-77
2021/04/28 05:05:26;;;;;;;12.80;4.82;;;17.50;68.00;;;;;;6120497;29;20091;-78
2021/04/28 05:08:27;;;;;;;9.95;4.70;;;17.50;68.00;;;;;;6113010;29;20035;-77
2021/04/28 05:11:28;;;;;;;10.93;5.25;;;17.50;68.10;;;;;;6112821;29;20039;-77
2021/04/28 05:14:29;;;;;;;5.28;3.95;;;17.60;68.20;;;;;;6109585;29;20134;-76
2021/04/28 05:17:30;;;;;;;9.45;5.13;;;17.60;68.20;;;;;;6112588;29;20031;-79
2021/04/28 05:20:31;;;;;;;8.18;5.15;;;17.60;68.20;;;;;;6100442;29;20043;-77
2021/04/28 05:23:32;;;;;;;8.13;5.03;;;17.50;68.30;;;;;;6122997;29;20055;-78
2021/04/28 05:26:57;;;;;;;9.65;4.75;;;17.60;68.40;;;;;;6057601;29;20041;-79
2021/04/28 05:29:59;;;;;;;10.32;4.95;;;17.60;68.30;;;;;;6044436;29;20043;-77
2021/04/28 05:33:00;;;;;;;10.45;4.90;;;17.60;68.30;;;;;;6042216;29;20069;-79
2021/04/28 05:36:02;;;;;;;11.77;4.50;;;17.70;68.30;;;;;;6057798;29;20029;-79
2021/04/28 05:39:04;;;;;;;8.15;4.78;;;17.70;68.10;;;;;;6038273;29;20048;-78
2021/04/28 05:42:23;;;;;;;8.45;4.80;;;17.60;68.00;;;;;;6053471;29;20465;-80
2021/04/28 05:45:24;;;;;;;9.30;4.90;;;17.60;68.00;;;;;;6047003;29;20109;-80
2021/04/28 05:48:26;;;;;;;7.70;4.25;;;17.60;68.00;;;;;;6045387;29;20490;-78
2021/04/28 05:51:27;;;;;;;7.88;4.80;;;17.60;68.00;;;;;;6043440;29;20044;-79
2021/04/28 05:54:28;;;;;;;13.50;5.20;;;17.60;67.90;;;;;;6059662;29;20029;-79
2021/04/28 05:57:31;;;;;;;11.30;5.22;;;17.60;67.80;;;;;;6053221;29;20374;-77
2021/04/28 06:00:33;;;;;;;10.70;6.20;;;17.60;67.80;;;;;;6022845;29;20120;-79
2021/04/28 06:03:36;;;;;;;14.25;6.28;;;17.60;67.80;;;;;;6061712;29;20112;-79
2021/04/28 06:06:39;;;;;;;10.20;5.75;;;17.70;67.80;;;;;;6087304;29;20115;-83
2021/04/28 06:09:40;;;;;;;8.10;5.40;;;17.70;67.70;;;;;;6104632;29;20032;-80
2021/04/28 06:12:42;;;;;;;9.65;5.50;;;17.70;67.60;;;;;;6082228;29;20037;-81
2021/04/28 06:15:44;;;;;;;9.70;5.13;;;17.80;67.60;;;;;;6101856;29;20028;-81
2021/04/28 06:18:45;;;;;;;11.70;5.75;;;17.90;67.70;;;;;;6104781;29;20033;-80
2021/04/28 06:21:48;;;;;;;8.27;4.38;;;17.90;67.70;;;;;;6103454;29;20103;-81
2021/04/28 06:24:49;;;;;;;14.50;5.10;;;17.90;67.60;;;;;;6099864;29;20028;-83
2021/04/28 06:27:50;;;;;;;9.30;4.65;;;18.00;67.60;;;;;;6121902;29;20068;-81
2021/04/28 06:30:51;;;;;;;9.10;5.28;;;18.00;67.50;;;;;;6096947;29;20033;-81
2021/04/28 06:33:52;;;;;;;9.55;4.85;;;18.10;67.40;;;;;;6093399;29;20037;-80
2021/04/28 06:36:54;;;;;;;9.75;5.15;;;18.10;67.30;;;;;;6105750;29;20083;-82
2021/04/28 06:39:55;;;;;;;7.68;4.65;;;18.10;67.20;;;;;;6091426;29;20032;-82
2021/04/28 06:42:57;;;;;;;13.95;5.05;;;18.10;67.20;;;;;;6070550;29;20117;-81
2021/04/28 06:45:58;;;;;;;9.48;4.95;;;18.10;67.20;;;;;;6100158;29;20071;-81
2021/04/28 06:48:59;;;;;;;10.30;4.95;;;18.10;67.30;;;;;;6084120;29;20032;-81
2021/04/28 06:52:00;;;;;;;10.30;5.25;;;18.10;67.20;;;;;;6087318;29;20322;-82
2021/04/28 06:55:03;;;;;;;8.57;5.03;;;18.10;67.20;;;;;;6089369;29;20025;-80
2021/04/28 06:58:04;;;;;;;7.35;4.80;;;18.20;67.20;;;;;;6079579;29;20048;-80
2021/04/28 07:01:06;;;;;;;9.38;4.95;;;18.20;67.00;;;;;;6095446;29;20033;-80
2021/04/28 07:04:07;;;;;;;10.23;4.90;;;18.30;66.80;;;;;;6079129;29;20028;-80
2021/04/28 07:07:10;;;;;;;10.30;5.15;;;18.30;66.70;;;;;;6096130;29;20115;-81
2021/04/28 07:10:13;;;;;;;12.18;5.28;;;18.40;66.50;;;;;;6091062;29;20039;-82
2021/04/28 07:13:14;;;;;;;14.32;5.32;;;18.50;66.30;;;;;;6088894;29;20039;-80
2021/04/28 07:16:15;;;;;;;7.05;4.75;;;18.50;65.90;;;;;;6104377;29;20084;-81
2021/04/28 07:19:17;;;;;;;8.70;4.43;;;18.60;65.70;;;;;;6092383;29;20032;-82
2021/04/28 07:22:19;;;;;;;6.97;4.57;;;18.60;65.40;;;;;;6081028;29;20028;-81
2021/04/28 07:25:20;;;;;;;8.88;5.05;;;18.60;65.40;;;;;;6107886;29;20032;-80
2021/04/28 07:28:21;;;;;;;8.52;4.90;;;18.60;65.20;;;;;;6119009;29;20043;-81
2021/04/28 07:31:23;;;;;;;11.13;4.28;;;18.70;65.10;;;;;;6090070;29;20043;-81
2021/04/28 07:34:24;;;;;;;8.43;4.57;;;18.80;64.90;;;;;;6098244;29;20040;-80
2021/04/28 07:37:24;;;;;;;8.30;5.55;;;18.80;64.60;;;;;;6103050;29;20056;-80
2021/04/28 07:40:25;;;;;;;7.45;4.13;;;18.90;64.40;;;;;;6096385;29;20033;-80
2021/04/28 07:43:29;;;;;;;12.98;5.78;;;18.90;64.20;;;;;;6121872;29;20036;-80
2021/04/28 07:46:32;;;;;;;8.30;5.20;;;18.90;64.10;;;;;;6100844;29;20037;-80
2021/04/28 07:49:33;;;;;;;10.30;5.65;;;19.00;64.20;;;;;;6099692;29;20029;-80
2021/04/28 07:52:34;;;;;;;10.40;5.72;;;19.00;64.20;;;;;;6098814;29;20032;-80
2021/04/28 07:55:36;;;;;;;10.40;5.28;;;19.00;64.20;;;;;;6101600;29;20364;-80
2021/04/28 07:58:37;;;;;;;9.90;4.60;;;19.10;64.20;;;;;;6094337;29;20470;-81
2021/04/28 08:01:38;;;;;;;9.48;4.88;;;19.20;64.00;;;;;;6087347;29;20032;-80
2021/04/28 08:04:40;;;;;;;9.57;5.57;;;19.20;63.70;;;;;;6101656;29;20448;-79
2021/04/28 08:07:43;;;;;;;8.70;4.65;;;19.30;63.60;;;;;;6099829;29;20028;-80
2021/04/28 08:10:46;;;;;;;5.85;4.22;;;19.30;63.60;;;;;;6099759;29;20032;-80
2021/04/28 08:13:48;;;;;;;9.48;4.95;;;19.30;63.60;;;;;;6092207;29;20119;-81
2021/04/28 08:16:52;;;;;;;8.43;4.60;;;19.30;63.70;;;;;;6088764;29;20380;-80
2021/04/28 08:19:53;;;;;;;7.30;4.45;;;19.30;63.70;;;;;;6068135;29;20036;-81
2021/04/28 08:23:13;;;;;;;5.82;4.22;;;19.20;63.60;;;;;;6081972;29;20044;-82
2021/04/28 08:26:15;;;;;;;8.00;4.60;;;19.20;63.30;;;;;;6076043;29;20120;-82
2021/04/28 08:29:17;;;;;;;8.00;4.07;;;19.20;63.30;;;;;;6092465;29;20037;-84
2021/04/28 08:32:18;;;;;;;11.10;5.05;;;19.20;63.30;;;;;;6101473;29;20029;-84
2021/04/28 08:35:19;;;;;;;9.80;5.07;;;19.30;63.40;;;;;;6098671;29;20100;-83
2021/04/28 08:38:20;;;;;;;8.55;5.53;;;19.10;63.40;;;;;;6083293;29;20108;-82
2021/04/28 08:41:21;;;;;;;11.43;6.65;;;19.20;63.60;;;;;;6100363;29;20043;-84
2021/04/28 08:44:22;;;;;;;10.18;6.28;;;19.10;64.00;;;;;;6084210;29;20032;-84
2021/04/28 08:47:23;;;;;;;13.02;6.72;;;19.20;64.30;;;;;;6083816;29;20040;-83
2021/04/28 08:50:25;;;;;;;10.05;6.88;;;19.10;64.60;;;;;;6085144;29;20081;-83
2021/04/28 08:53:31;;;;;;;11.90;6.55;;;19.10;64.70;;;;;;6064492;29;20043;-82
2021/04/28 08:56:33;;;;;;;12.57;6.45;;;19.10;64.60;;;;;;6092748;29;20048;-83
2021/04/28 08:59:34;;;;;;;13.27;6.05;;;19.20;64.60;;;;;;6119427;29;20106;-84
2021/04/28 09:02:53;;;;;;;13.25;6.78;;;19.30;64.40;;;;;;6097397;29;20042;-84
2021/04/28 09:05:54;;;;;;;12.85;6.40;;;19.50;64.20;;;;;;6096964;29;20061;-82
2021/04/28 09:08:56;;;;;;;18.80;6.47;;;19.80;63.50;;;;;;6114036;29;20148;-83
2021/04/28 09:11:59;;;;;;;15.98;6.90;;;19.90;63.00;;;;;;6132804;29;20061;-83
2021/04/28 09:15:01;;;;;;;18.95;7.57;;;20.10;62.60;;;;;;6143771;29;20027;-85
2021/04/28 09:18:05;;;;;;;14.57;6.47;;;20.40;62.30;;;;;;6129890;29;20486;-84
2021/04/28 09:22:18;;;;;;;9.85;5.60;;;20.50;61.60;;;;;;6116653;29;20035;-84
2021/04/28 09:25:43;;;;;;;23.75;7.47;;;20.70;60.70;;;;;;6061729;29;20033;-82
2021/04/28 09:29:05;;;;;;;9.05;5.30;;;21.00;60.00;;;;;;6037800;29;20074;-83
2021/04/28 09:32:08;;;;;;;14.52;5.40;;;21.20;59.30;;;;;;6045545;29;20039;-85
2021/04/28 09:35:20;;;;;;;6.72;4.05;;;21.50;58.90;;;;;;6058530;29;20128;-83
2021/04/28 09:38:21;;;;;;;7.40;4.40;;;21.60;58.30;;;;;;6045929;29;20048;-84
2021/04/28 09:41:56;;;;;;;9.73;5.15;;;21.60;57.70;;;;;;6048996;29;20131;-86
2021/04/28 09:44:58;;;;;;;7.88;4.50;;;21.60;57.50;;;;;;6048387;29;20124;-83
2021/04/28 09:48:00;;;;;;;12.60;4.68;;;21.70;57.40;;;;;;6061928;29;20477;-83
2021/04/28 09:51:06;;;;;;;10.43;3.63;;;21.60;57.10;;;;;;6046302;29;20074;-84
2021/04/28 09:54:12;;;;;;;8.95;3.60;;;21.70;56.80;;;;;;6047340;29;20047;-83
2021/04/28 09:57:18;;;;;;;8.98;3.70;;;21.70;56.60;;;;;;6031470;29;20044;-84
2021/04/28 10:00:28;;;;;;;10.50;3.33;;;21.80;56.40;;;;;;6069955;29;20078;-80
2021/04/28 10:03:49;;;;;;;6.85;3.40;;;21.90;56.40;;;;;;6133273;29;20036;-81
2021/04/28 10:06:50;;;;;;;5.40;3.80;;;21.80;55.70;;;;;;6133259;29;20036;-80
2021/04/28 10:09:56;;;;;;;6.25;4.18;;;21.80;55.50;;;;;;6119201;29;20047;-83
2021/04/28 10:12:57;;;;;;;7.63;3.85;;;21.70;55.50;;;;;;6130598;29;20063;-84
2021/04/28 10:15:59;;;;;;;7.65;4.22;;;21.60;55.50;;;;;;6118148;29;20079;-83
2021/04/28 10:19:00;;;;;;;9.13;3.50;;;21.60;55.40;;;;;;6117587;29;20411;-83
2021/04/28 10:22:15;;;;;;;5.63;2.85;;;21.50;55.50;;;;;;6122576;29;20038;-83
2021/04/28 10:25:18;;;;;;;4.25;3.25;;;21.50;55.40;;;;;;6111789;29;20045;-84
2021/04/28 10:28:20;;;;;;;5.25;2.22;;;21.60;55.20;;;;;;6118330;29;20343;-85
2021/04/28 10:31:23;;;;;;;12.85;3.25;;;21.50;54.90;;;;;;6119632;29;20039;-83
2021/04/28 10:34:36;;;;;;;10.75;3.00;;;21.40;55.00;;;;;;6136024;29;20071;-85
2021/04/28 10:37:38;;;;;;;4.45;2.78;;;21.40;55.20;;;;;;6133384;29;20106;-83
2021/04/28 10:40:39;;;;;;;4.25;2.47;;;21.40;55.30;;;;;;6117689;29;20035;-84
2021/04/28 10:43:42;;;;;;;3.50;2.55;;;21.40;55.40;;;;;;6124910;29;20081;-86
2021/04/28 10:46:43;;;;;;;4.47;2.70;;;21.30;55.20;;;;;;6122190;29;20043;-84
2021/04/28 10:50:03;;;;;;;6.93;2.78;;;21.30;55.50;;;;;;6132266;29;20035;-81
2021/04/28 10:53:08;;;;;;;7.40;2.70;;;21.00;55.70;;;;;;6133947;29;20032;-81
2021/04/28 10:56:15;;;;;;;3.00;2.20;;;21.20;55.90;;;;;;6133418;29;20040;-83
2021/04/28 10:59:31;;;;;;;3.88;2.50;;;21.10;56.20;;;;;;6116714;29;20027;-83
2021/04/28 11:02:34;;;;;;;4.60;2.47;;;20.90;56.40;;;;;;6115942;29;20754;-83
2021/04/28 11:05:36;;;;;;;5.65;2.60;;;20.90;56.60;;;;;;6116579;29;20103;-83
2021/04/28 11:08:37;;;;;;;2.97;2.05;;;20.90;56.90;;;;;;6131505;29;20043;-82
2021/04/28 11:11:42;;;;;;;3.92;2.40;;;20.80;56.90;;;;;;6132230;29;20054;-84
2021/04/28 11:14:47;;;;;;;5.32;2.83;;;20.70;57.10;;;;;;6116028;29;20027;-81
2021/04/28 11:17:49;;;;;;;10.70;3.88;;;20.70;57.40;;;;;;6120518;29;20043;-84
2021/04/28 11:21:25;;;;;;;10.45;2.53;;;20.70;57.50;;;;;;6100758;29;20363;-85
2021/04/28 11:24:27;;;;;;;5.28;2.00;;;20.70;58.10;;;;;;6108647;29;20047;-84
2021/04/28 11:27:57;;;;;;;3.92;2.20;;;20.80;57.20;;;;;;6137118;29;20122;-83
2021/04/28 11:30:59;;;;;;;4.57;2.30;;;20.80;57.40;;;;;;6132007;29;20024;-84
2021/04/28 11:34:00;;;;;;;4.75;2.22;;;20.80;57.40;;;;;;6115100;29;20032;-83
2021/04/28 11:37:03;;;;;;;10.90;2.50;;;20.80;57.30;;;;;;6114659;29;20058;-80
2021/04/28 11:40:07;;;;;;;3.40;2.25;;;20.70;57.50;;;;;;6113436;29;20115;-79
2021/04/28 11:43:09;;;;;;;13.65;3.00;;;20.50;57.60;;;;;;6120415;29;20038;-80
2021/04/28 11:46:17;;;;;;;7.28;2.45;;;20.40;58.00;;;;;;6125242;29;20031;-78
2021/04/28 11:49:18;;;;;;;11.45;3.30;;;20.30;58.50;;;;;;6134616;29;20117;-80
2021/04/28 11:52:21;;;;;;;4.28;2.38;;;20.40;58.60;;;;;;6124689;29;20033;-78
2021/04/28 11:55:23;;;;;;;3.38;1.85;;;20.40;58.60;;;;;;6110006;29;20382;-82
2021/04/28 11:58:34;;;;;;;3.22;2.08;;;20.50;58.60;;;;;;6136983;29;20071;-82
2021/04/28 12:01:36;;;;;;;4.25;1.90;;;20.60;58.30;;;;;;6122640;29;20078;-79
2021/04/28 12:04:38;;;;;;;4.15;2.20;;;20.70;57.60;;;;;;6120987;29;20024;-82
2021/04/28 12:07:47;;;;;;;1.52;1.42;;;20.70;57.50;;;;;;6108994;29;20035;-83
2021/04/28 12:10:58;;;;;;;2.65;1.60;;;20.70;57.50;;;;;;6137244;29;20060;-80
2021/04/28 12:14:00;;;;;;;3.92;1.33;;;20.80;57.40;;;;;;6133315;29;20024;-80
2021/04/28 12:17:01;;;;;;;7.80;3.47;;;20.90;57.20;;;;;;6139939;29;20082;-81
2021/04/28 12:20:05;;;;;;;5.05;1.70;;;20.90;57.00;;;;;;6134656;29;20039;-81
2021/04/28 12:23:07;;;;;;;2.47;1.55;;;20.90;57.00;;;;;;6122659;29;20442;-81
2021/04/28 12:26:11;;;;;;;2.20;1.77;;;20.80;56.80;;;;;;6132609;29;20118;-82
2021/04/28 12:29:22;;;;;;;4.32;1.95;;;20.80;56.90;;;;;;6113792;29;20465;-81
2021/04/28 12:32:29;;;;;;;3.60;1.75;;;20.80;57.10;;;;;;6114358;29;20052;-81
2021/04/28 12:35:35;;;;;;;4.78;1.80;;;20.90;57.10;;;;;;6120675;29;20023;-81
2021/04/28 12:38:43;;;;;;;4.10;1.92;;;21.20;56.60;;;;;;6146072;29;20035;-82
2021/04/28 12:41:44;;;;;;;7.05;1.83;;;21.40;56.00;;;;;;6131690;29;20019;-81
2021/04/28 12:44:48;;;;;;;2.15;1.55;;;21.60;55.60;;;;;;6117219;29;20059;-82
2021/04/28 12:47:49;;;;;;;30.65;3.63;;;21.70;55.60;;;;;;6125331;29;20035;-83
2021/04/28 12:50:52;;;;;;;22.05;2.88;;;21.70;55.60;;;;;;6121024;29;20047;-81
2021/04/28 12:53:58;;;;;;;32.92;2.50;;;21.80;55.60;;;;;;6129895;29;20082;-81
2021/04/28 12:57:17;;;;;;;6.82;2.25;;;21.90;55.40;;;;;;6117760;29;20052;-82
2021/04/28 13:00:20;;;;;;;14.75;2.22;;;22.00;54.90;;;;;;6112674;29;20023;-82
2021/04/28 13:03:24;;;;;;;2.25;1.70;;;22.10;54.70;;;;;;6136248;29;20028;-82
2021/04/28 13:06:28;;;;;;;2.15;1.88;;;22.20;54.50;;;;;;6097633;29;20110;-82
2021/04/28 13:09:29;;;;;;;2.05;1.35;;;22.40;54.20;;;;;;6142623;29;20027;-82
2021/04/28 13:12:34;;;;;;;3.92;1.98;;;22.40;53.80;;;;;;6131793;29;20033;-82
2021/04/28 13:15:39;;;;;;;3.63;2.08;;;22.70;53.70;;;;;;6108475;29;20114;-82
2021/04/28 13:18:51;;;;;;;7.20;2.08;;;23.70;52.40;;;;;;6128425;29;20375;-81
2021/04/28 13:22:01;;;;;;;2.75;1.73;;;24.60;50.30;;;;;;6122136;29;20199;-83
2021/04/28 13:25:02;;;;;;;1.60;1.38;;;25.30;49.10;;;;;;6113528;29;20431;-82
2021/04/28 13:28:36;;;;;;;1.65;1.48;;;25.80;47.50;;;;;;6109626;29;20149;-82
2021/04/28 13:31:41;;;;;;;2.03;1.40;;;26.10;46.10;;;;;;6123455;29;20135;-80
2021/04/28 13:34:43;;;;;;;2.28;1.83;;;25.80;45.50;;;;;;6113347;29;20452;-80
2021/04/28 13:37:59;;;;;;;1.65;1.27;;;25.70;46.20;;;;;;6128533;29;20383;-81
2021/04/28 13:41:10;;;;;;;2.45;1.38;;;26.00;45.60;;;;;;6128200;29;20036;-81
2021/04/28 13:44:12;;;;;;;18.63;2.90;;;26.10;45.20;;;;;;6125766;29;20464;-82
2021/04/28 13:47:13;;;;;;;4.85;2.10;;;26.20;45.00;;;;;;6130240;29;20049;-81
2021/04/28 13:50:15;;;;;;;2.30;1.45;;;25.90;45.50;;;;;;6116562;29;20042;-81
2021/04/28 13:53:18;;;;;;;7.20;1.90;;;25.60;45.80;;;;;;6124785;29;20089;-80
2021/04/28 13:56:19;;;;;;;3.67;1.95;;;25.10;46.60;;;;;;6152384;29;20038;-80
2021/04/28 13:59:24;;;;;;;5.93;2.17;;;24.80;47.30;;;;;;6134887;29;20047;-80
2021/04/28 14:02:26;;;;;;;2.47;1.83;;;24.60;47.60;;;;;;6118761;29;20038;-81
2021/04/28 14:05:27;;;;;;;2.45;1.48;;;24.30;47.90;;;;;;6098802;29;20091;-80
2021/04/28 14:08:29;;;;;;;3.90;1.63;;;24.00;48.30;;;;;;6099702;29;20092;-81
2021/04/28 14:11:31;;;;;;;3.45;1.40;;;23.70;48.70;;;;;;6134743;29;20039;-81
2021/04/28 14:14:32;;;;;;;4.20;1.48;;;23.40;49.10;;;;;;6113087;29;20024;-82
2021/04/28 14:17:33;;;;;;;2.08;1.35;;;23.20;49.50;;;;;;6116396;29;20056;-79
2021/04/28 14:20:34;;;;;;;1.88;1.23;;;23.00;49.60;;;;;;6130175;29;20541;-81
2021/04/28 14:23:35;;;;;;;2.35;1.17;;;22.90;49.60;;;;;;6130850;29;20035;-80
2021/04/28 14:26:37;;;;;;;1.67;1.20;;;22.70;49.20;;;;;;6133368;29;20042;-80
2021/04/28 14:29:38;;;;;;;3.30;1.77;;;22.70;49.30;;;;;;6149635;29;20130;-80
2021/04/28 14:32:39;;;;;;;4.75;1.88;;;22.60;49.90;;;;;;6135348;29;20202;-81
2021/04/28 14:35:40;;;;;;;4.07;1.20;;;22.40;50.50;;;;;;6132461;29;20028;-80
2021/04/28 14:38:41;;;;;;;2.20;0.98;;;22.20;50.80;;;;;;6150715;29;20027;-80
2021/04/28 14:41:45;;;;;;;4.32;1.30;;;22.20;50.80;;;;;;6135384;29;20042;-81
2021/04/28 14:44:46;;;;;;;1.88;1.25;;;22.10;50.70;;;;;;6148996;29;20040;-80
2021/04/28 14:47:47;;;;;;;5.38;2.30;;;22.10;50.60;;;;;;6148300;29;20028;-81
2021/04/28 14:50:48;;;;;;;3.83;1.70;;;22.00;50.40;;;;;;6114991;29;20646;-82
2021/04/28 14:53:50;;;;;;;3.58;1.73;;;21.90;50.60;;;;;;6145247;29;20363;-84
2021/04/28 14:56:54;;;;;;;3.42;1.98;;;21.90;51.30;;;;;;6115284;29;20091;-82
2021/04/28 14:59:55;;;;;;;3.25;1.55;;;21.80;51.70;;;;;;6129113;29;20148;-82
2021/04/28 15:02:59;;;;;;;2.72;1.70;;;21.70;51.80;;;;;;6139138;29;20027;-82
2021/04/28 15:06:00;;;;;;;2.95;1.70;;;21.60;52.10;;;;;;6132636;29;20124;-82
2021/04/28 15:09:02;;;;;;;2.55;1.80;;;21.50;52.30;;;;;;6116186;29;20098;-81
2021/04/28 15:12:04;;;;;;;2.17;1.40;;;21.40;52.30;;;;;;6124314;29;20043;-84
2021/04/28 15:15:06;;;;;;;3.95;1.95;;;21.30;52.60;;;;;;6131024;29;20363;-82
2021/04/28 15:18:08;;;;;;;6.82;2.00;;;21.20;52.90;;;;;;6115256;29;20031;-83
2021/04/28 15:21:09;;;;;;;1.25;1.15;;;21.10;53.10;;;;;;6124587;29;20032;-82
2021/04/28 15:24:14;;;;;;;6.10;1.20;;;21.00;53.30;;;;;;6105935;29;20118;-83
2021/04/28 15:27:15;;;;;;;1.17;1.08;;;20.90;52.40;;;;;;6115318;29;20039;-83
2021/04/28 15:30:16;;;;;;;3.72;1.77;;;20.90;51.60;;;;;;6122025;29;20128;-84
2021/04/28 15:33:21;;;;;;;10.70;2.05;;;20.90;51.90;;;;;;6131033;29;20027;-83
2021/04/28 15:36:23;;;;;;;2.70;1.27;;;20.90;52.10;;;;;;6144948;29;20153;-84
2021/04/28 15:39:26;;;;;;;4.53;1.73;;;21.00;52.70;;;;;;6109658;29;20131;-83
2021/04/28 15:42:27;;;;;;;3.92;2.13;;;21.00;52.00;;;;;;6121194;29;20051;-83
2021/04/28 15:45:28;;;;;;;9.07;2.20;;;20.90;52.10;;;;;;6115750;29;20043;-83
2021/04/28 15:48:29;;;;;;;2.45;1.58;;;20.90;52.40;;;;;;6116731;29;20485;-83
2021/04/28 15:51:30;;;;;;;3.65;1.38;;;20.90;52.50;;;;;;6114803;29;20039;-83
2021/04/28 15:54:32;;;;;;;2.00;1.27;;;20.90;52.40;;;;;;6114724;29;20044;-83
2021/04/28 15:57:33;;;;;;;2.13;1.52;;;20.80;52.30;;;;;;6132655;29;20044;-82
2021/04/28 16:00:35;;;;;;;3.55;1.55;;;20.80;52.10;;;;;;6114937;29;20086;-83
2021/04/28 16:03:37;;;;;;;4.00;1.80;;;20.80;52.60;;;;;;6122079;29;20036;-82